Latest Weather Observations for Thevenard Island

IDW60801

Issued at 9:53 pm WST Wednesday 24 April 2019 (issued every 10 minutes, with the page automatically refreshed every 10 minutes)

About weather observations | Map of weather stations | Latest weather observations for WA | Other Formats
Station Details ID: 005084 Name: THEVENARD ISLAND Lat: -21.46 Lon: 115.02 Height: 5.0 m
Data from the previous 72 hours. | See also: Recent months at Thevenard Island
Date/Time
WST
Temp
°C
App
Temp
°C
Dew
Point
°C
Rel
Hum
%
Delta-T
°C
Wind Press
QNH
hPa
Press
MSL
hPa
Rain since
9am
mm
Dir  Spd
km/h
Gust
km/h
Spd
kts
Gust
kts
24/09:30pm 24.2 - 24.4 - - WSW 9 9 5 5 1015.6 - 0.0
24/09:00pm 23.6 27.9 23.6 100 0.0 WSW 7 9 4 5 1015.6 1015.6 0.0
24/08:30pm 24.9 30.0 24.9 100 0.0 WSW 7 9 4 5 1015.7 - 0.0
24/08:00pm 25.1 30.3 25.1 100 0.0 WSW 7 9 4 5 1015.4 - 0.0
24/07:30pm 25.2 30.1 25.2 100 0.0 WSW 9 11 5 6 1014.9 - 0.0
24/07:00pm 25.9 30.7 25.7 99 0.1 NNW 11 13 6 7 1014.6 - 0.0
24/06:30pm 26.7 30.6 24.9 90 1.3 N 13 13 7 7 1014.2 - 0.0
24/06:00pm 27.7 30.0 22.0 71 3.8 N 13 15 7 8 1013.9 1013.9 0.0
24/05:30pm 29.4 30.5 19.7 56 6.3 NNW 13 17 7 9 1013.7 - 0.0
24/05:00pm 30.4 30.8 19.1 50 7.3 NNW 15 20 8 11 1013.6 - 0.0
24/04:30pm 30.6 30.6 17.3 45 8.4 N 13 17 7 9 1013.5 - 0.0
24/04:00pm 30.7 30.2 17.0 43 8.7 N 15 20 8 11 1013.7 - 0.0
24/03:30pm 31.0 30.4 16.6 42 9.1 N 15 20 8 11 1013.7 - 0.0
24/03:00pm 30.9 30.7 17.6 45 8.5 N 15 20 8 11 1013.7 1013.7 0.0
24/02:30pm 31.7 31.2 16.8 40 9.4 N 15 20 8 11 1013.8 - 0.0
24/02:00pm 30.6 28.7 13.0 34 10.5 N 15 20 8 11 1013.8 - 0.0
24/01:30pm 31.8 30.3 13.1 32 11.2 NNE 13 17 7 9 1013.9 - 0.0
24/01:00pm 31.9 29.9 10.0 26 12.5 NNE 11 15 6 8 1014.2 - 0.0
24/12:30pm 31.8 30.2 11.6 29 11.8 NE 11 15 6 8 1014.6 - 0.0
24/12:00pm 31.3 29.3 10.1 27 12.1 ENE 11 15 6 8 1015.1 1015.1 0.0
24/11:30am 30.2 29.3 12.6 34 10.4 E 9 13 5 7 1015.5 - 0.0
24/11:00am 29.5 29.0 14.9 41 8.9 E 11 15 6 8 1015.9 - 0.0
24/10:30am 28.4 26.1 13.1 39 9.0 ESE 17 22 9 12 1016.1 - 0.0
24/10:00am 27.4 25.9 13.0 41 8.4 SSE 13 17 7 9 1016.1 - 0.0
24/09:30am 26.9 25.0 14.3 46 7.5 SSE 17 20 9 11 1016.2 - 0.0
24/09:00am 26.5 24.1 13.9 45 7.5 SE 19 20 10 11 1016.0 1016.0 0.0
24/08:30am 25.9 23.4 12.4 43 7.8 SSE 17 20 9 11 1015.9 - 0.0
24/08:00am 25.7 23.8 14.2 49 6.8 SE 17 19 9 10 1015.8 - 0.0
24/07:30am 25.0 24.5 15.9 57 5.5 SE 13 17 7 9 1015.6 - 0.0
24/07:00am 23.5 23.9 17.3 68 3.8 SE 11 13 6 7 1015.4 - 0.0
24/06:30am 21.1 21.7 17.7 81 2.1 SE 11 11 6 6 1015.2 - 0.0
24/06:00am 19.6 21.4 19.6 100 0.0 SE 9 11 5 6 1014.9 1014.9 0.0
24/05:30am 17.3 18.6 17.1 99 0.1 SE 6 7 3 4 1014.9 - 0.0
24/05:00am 18.6 21.2 18.4 99 0.1 E 2 6 1 3 1014.8 - 0.0
24/04:30am 19.1 22.3 18.9 99 0.1 CALM 0 7 0 4 1014.4 - 0.0
24/04:00am 19.1 22.3 18.9 99 0.1 CALM 0 0 0 0 1014.7 - 0.0
24/03:30am 20.0 23.6 19.8 99 0.1 CALM 0 0 0 0 1014.5 - 0.0
24/03:00am 21.3 24.1 19.6 90 1.1 E 4 6 2 3 1014.7 1014.7 0.0
24/02:30am 23.2 25.1 19.8 81 2.2 ESE 9 11 5 6 1014.9 - 0.0
24/02:00am 23.8 25.6 20.3 81 2.3 SSE 11 13 6 7 1015.1 - 0.0
24/01:30am 24.3 25.9 20.8 81 2.3 S 13 17 7 9 1015.0 - 0.0
24/01:00am 24.8 26.1 20.9 79 2.6 S 15 20 8 11 1015.3 - 0.0
24/12:30am 25.0 26.6 22.1 84 1.9 S 17 19 9 10 1015.2 - 0.0
24/12:00am 25.0 27.1 23.1 89 1.3 SW 17 20 9 11 1015.2 1015.2 0.0
 
Date/Time
WST
Temp
°C
App
Temp
°C
Dew
Point
°C
Rel
Hum
%
Delta-T
°C
Wind Press
QNH
hPa
Press
MSL
hPa
Rain since
9am
mm
Dir  Spd
km/h
Gust
km/h
Spd
kts
Gust
kts
23/11:30pm 24.9 26.4 22.0 84 1.9 SW 17 20 9 11 1015.4 - 0.0
23/11:00pm 24.5 26.8 22.7 90 1.2 SW 15 17 8 9 1015.5 - 0.0
23/10:30pm 24.4 27.5 24.2 99 0.1 SW 15 19 8 10 1015.7 - 0.0
23/10:00pm 24.6 27.5 24.4 99 0.1 SW 17 20 9 11 1015.9 - 0.0
23/09:30pm 24.6 27.6 24.6 100 0.0 SW 17 20 9 11 1015.9 - 0.0
23/09:00pm 24.5 27.8 24.5 100 0.0 SW 15 17 8 9 1015.9 1015.9 0.0
23/08:30pm 24.4 27.6 24.4 100 0.0 SW 15 17 8 9 1015.7 - 0.0
23/08:00pm 23.1 26.2 22.9 99 0.1 W 11 13 6 7 1015.4 - 0.0
23/07:30pm 23.5 26.0 23.2 98 0.2 W 15 15 8 8 1015.2 - 0.0
23/07:00pm 23.8 26.1 22.1 90 1.1 W 13 15 7 8 1015.0 - 0.0
23/06:30pm 24.6 25.8 19.9 75 3.0 WNW 13 15 7 8 1014.6 - 0.0
23/06:00pm 26.1 26.9 19.0 65 4.5 WNW 13 15 7 8 1014.3 1014.3 0.0
23/05:30pm 28.0 28.1 18.4 56 6.1 WNW 15 20 8 11 1013.9 - 0.0
23/05:00pm 28.8 27.8 16.7 48 7.6 NW 17 20 9 11 1013.8 - 0.0
23/04:30pm 29.5 28.5 15.6 43 8.6 NW 15 19 8 10 1013.8 - 0.0
23/04:00pm 29.6 28.2 14.6 40 9.1 NNW 15 19 8 10 1013.6 - 0.0
23/03:30pm 29.9 29.3 15.6 42 8.8 NNW 13 19 7 10 1013.5 - 0.0
23/03:00pm 29.9 28.6 13.6 36 9.7 NNW 13 17 7 9 1013.5 1013.5 0.0
23/02:30pm 30.4 29.1 13.7 36 10.0 N 13 17 7 9 1013.5 - 0.0
23/02:00pm 30.4 29.1 13.7 36 10.0 N 13 17 7 9 1013.7 - 0.0
23/01:30pm 29.9 27.8 12.3 33 10.3 N 15 17 8 9 1013.7 - 0.0
23/01:00pm 29.4 27.8 11.5 33 10.3 NE 11 15 6 8 1013.9 - 0.0
23/12:30pm 29.8 28.8 14.7 39 9.2 E 13 19 7 10 1014.1 - 0.0
23/12:00pm 29.4 27.4 12.8 36 9.8 E 15 17 8 9 1014.6 1014.6 0.0
23/11:30am 28.9 26.9 12.8 37 9.5 E 15 19 8 10 1015.0 - 0.0
23/11:00am 28.3 25.5 10.0 32 10.3 E 15 19 8 10 1015.3 - 0.0
23/10:30am 27.5 25.4 11.1 36 9.3 ESE 13 17 7 9 1015.7 - 0.0
23/10:00am 27.0 24.3 10.2 35 9.4 ESE 15 17 8 9 1015.8 - 0.0
23/09:30am 26.7 23.6 11.6 39 8.6 SE 19 22 10 12 1015.8 - 0.0
23/09:00am 26.0 22.8 11.4 40 8.3 SE 19 24 10 13 1015.6 1015.6 0.0
23/08:30am 25.6 22.9 11.7 42 7.9 SE 17 20 9 11 1015.4 - 0.0
23/08:00am 24.9 22.1 12.5 46 7.1 SE 19 22 10 12 1015.3 - 0.0
23/07:30am 24.6 21.3 10.8 42 7.7 SSE 19 22 10 12 1015.0 - 0.0
23/07:00am 24.3 21.2 12.3 47 6.9 SSE 20 26 11 14 1014.5 - 0.0
23/06:30am 24.4 21.2 9.9 40 8.0 SSE 17 20 9 11 1014.4 - 0.0
23/06:00am 24.4 21.4 9.2 38 8.2 SSE 15 19 8 10 1014.3 1014.3 0.0
23/05:30am 24.8 20.7 8.7 36 8.7 SSE 20 26 11 14 1013.8 - 0.0
23/05:00am 25.2 21.8 10.6 40 8.1 SSE 19 22 10 12 1013.8 - 0.0
23/04:30am 25.1 22.1 10.6 40 8.1 SSE 17 20 9 11 1013.7 - 0.0
23/04:00am 25.1 22.2 12.3 45 7.3 SSE 19 22 10 12 1013.8 - 0.0
23/03:30am 25.5 21.9 10.5 39 8.4 SSE 20 28 11 15 1013.5 - 0.0
23/03:00am 25.2 22.5 13.4 48 6.9 S 20 24 11 13 1014.0 1014.0 0.0
23/02:30am 25.3 22.2 13.5 48 6.9 S 22 28 12 15 1014.0 - 0.0
23/02:00am 24.9 22.2 14.7 53 6.1 S 22 26 12 14 1014.4 - 0.0
23/01:30am 24.9 22.8 16.3 59 5.3 S 22 28 12 15 1014.5 - 0.0
23/01:00am 25.0 23.2 17.0 61 5.0 SSW 22 28 12 15 1014.7 - 0.0
23/12:30am 24.9 22.3 16.9 61 4.9 SSW 26 35 14 19 1014.9 - 0.0
23/12:00am 25.1 22.4 16.5 59 5.3 SSW 26 35 14 19 1014.8 1014.8 0.0
 
Date/Time
WST
Temp
°C
App
Temp
°C
Dew
Point
°C
Rel
Hum
%
Delta-T
°C
Wind Press
QNH
hPa
Press
MSL
hPa
Rain since
9am
mm
Dir  Spd
km/h
Gust
km/h
Spd
kts
Gust
kts
22/11:30pm 25.0 22.8 18.7 68 4.0 SSW 28 33 15 18 1015.1 - 0.0
22/11:00pm 25.3 23.1 18.7 67 4.2 SSW 28 35 15 19 1015.5 - 0.0
22/10:30pm 25.7 23.5 18.6 65 4.5 SW 28 35 15 19 1015.7 - 0.0
22/10:00pm 25.5 24.1 19.6 70 3.8 SW 26 33 14 18 1015.9 - 0.0
22/09:30pm 25.3 24.8 19.2 69 3.9 WSW 20 26 11 14 1015.9 - 0.0
22/09:00pm 25.0 25.5 20.0 74 3.2 WSW 17 20 9 11 1015.9 1015.9 0.0
22/08:30pm 24.9 25.5 19.5 72 3.5 WSW 15 19 8 10 1015.6 - 0.0
22/08:00pm 24.6 25.7 20.5 78 2.7 WSW 15 17 8 9 1015.4 - 0.0
22/07:30pm 24.5 25.4 20.0 76 2.9 WSW 15 17 8 9 1015.3 - 0.0
22/07:00pm 24.5 24.8 18.0 67 4.1 WSW 13 17 7 9 1015.2 - 0.0
22/06:30pm 25.1 24.3 17.0 60 5.0 WSW 17 20 9 11 1014.9 - 0.0
22/06:00pm 25.4 24.4 16.5 58 5.5 WSW 17 20 9 11 1014.6 1014.6 0.0
22/05:30pm 25.6 24.4 15.0 52 6.4 W 15 19 8 10 1014.3 - 0.0
22/05:00pm 26.4 24.2 14.5 48 7.1 W 19 26 10 14 1014.3 - 0.0
22/04:30pm 27.6 24.7 12.4 39 8.8 WNW 19 22 10 12 1014.2 - 0.0
22/04:00pm 28.5 25.4 11.6 35 9.7 WNW 19 24 10 13 1014.1 - 0.0
22/03:30pm 28.4 25.6 10.1 32 10.3 WNW 15 19 8 10 1014.1 - 0.0
22/03:00pm 28.9 25.7 8.6 28 11.1 NW 15 19 8 10 1014.1 1014.1 0.0
22/02:30pm 28.6 26.6 8.8 29 10.9 NNW 9 15 5 8 1014.3 - 0.0
22/02:00pm 28.6 25.9 7.2 26 11.5 N 11 15 6 8 1014.5 - 0.0
22/01:30pm 28.1 25.4 5.6 24 11.7 N 9 11 5 6 1014.5 - 0.0
22/01:00pm 26.9 25.0 7.4 29 10.4 NNE 7 11 4 6 1014.8 - 0.0
22/12:30pm 26.5 24.5 8.5 32 9.7 SE 9 13 5 7 1015.3 - 0.0
22/12:00pm 26.8 24.0 6.8 28 10.5 E 11 15 6 8 1015.6 1015.6 0.0
22/11:30am 26.3 23.8 8.3 32 9.7 E 11 15 6 8 1016.0 - 0.0
22/11:00am 26.2 22.2 6.8 29 10.2 E 17 20 9 11 1016.4 - 0.0
22/10:30am 25.7 22.0 7.8 32 9.5 E 17 22 9 12 1016.6 - 0.0
22/10:00am 25.2 20.8 7.3 32 9.4 ENE 20 26 11 14 1016.9 - 0.0
22/09:30am 24.9 19.3 7.1 32 9.3 ENE 26 37 14 20 1016.7 - 0.0
22/09:00am 25.1 19.0 8.1 34 9.1 E 30 37 16 20 1016.5 1016.5 0.0
22/08:30am 24.8 18.8 7.0 32 9.3 E 28 35 15 19 1016.6 - 0.0
22/08:00am 24.9 18.1 7.1 32 9.3 ENE 32 41 17 22 1016.2 - 0.0
22/07:30am 24.2 17.6 7.8 35 8.7 ENE 32 43 17 23 1016.0 - 0.0
22/07:00am 24.5 17.6 8.9 37 8.4 ENE 35 46 19 25 1015.8 - 0.0
22/06:30am 24.5 18.3 9.3 38 8.3 ENE 32 41 17 22 1015.3 - 0.0
22/06:00am 24.5 18.6 10.4 41 7.8 ENE 32 39 17 21 1015.2 1015.2 0.0
22/05:30am 24.6 20.1 11.5 44 7.4 E 26 35 14 19 1015.0 - 0.0
22/05:00am 24.6 21.0 12.9 48 6.8 E 24 30 13 16 1014.9 - 0.0
22/04:30am 23.5 24.6 18.8 75 3.0 N 11 13 6 7 1014.6 - 0.0
22/04:00am 24.4 25.0 18.6 70 3.7 N 13 15 7 8 1014.7 - 0.0
22/03:30am 22.5 22.7 14.6 61 4.7 NNE 7 11 4 6 1014.7 - 0.0
22/03:00am 22.3 21.3 12.3 53 5.7 ENE 9 11 5 6 1014.6 1014.6 0.0
22/02:30am 22.6 21.0 10.1 45 6.8 NE 9 13 5 7 1014.7 - 0.0
22/02:00am 23.6 21.6 10.3 43 7.3 ENE 11 13 6 7 1014.6 - 0.0
22/01:30am 24.2 22.1 9.8 40 7.9 E 11 13 6 7 1014.6 - 0.0
22/01:00am 24.5 21.8 8.9 37 8.4 E 13 17 7 9 1014.7 - 0.0
22/12:30am 24.9 21.5 7.5 33 9.2 E 15 20 8 11 1014.8 - 0.0
22/12:00am 25.1 22.2 9.8 38 8.4 ESE 15 20 8 11 1014.8 1014.8 0.0
 
Date/Time
WST
Temp
°C
App
Temp
°C
Dew
Point
°C
Rel
Hum
%
Delta-T
°C
Wind Press
QNH
hPa
Press
MSL
hPa
Rain since
9am
mm
Dir  Spd
km/h
Gust
km/h
Spd
kts
Gust
kts
21/11:30pm 24.8 22.2 10.7 41 7.9 SE 15 19 8 10 1014.9 - 0.0
21/11:00pm 23.5 23.1 16.1 63 4.5 SSE 13 17 7 9 1015.1 - 0.0
21/10:30pm 20.5 22.7 20.3 99 0.1 WSW 9 11 5 6 1015.5 - 0.0
21/10:00pm 20.8 22.6 20.3 97 0.3 W 11 13 6 7 1015.4 - 0.0

Other formats

Comma delimited format used in spreadsheet applications
http://www.bom.gov.au/fwo/IDW60801/IDW60801.94303.axf

JavaScript Object Notation format (JSON) in row-major order
http://www.bom.gov.au/fwo/IDW60801/IDW60801.94303.json

Data quality

Most of these data are generated automatically and are frequently updated. Quality checks on data are not normally performed. It is possible for incorrect values to appear. Refer to information at About Latest Weather Observations and please check the disclaimer before using these data.